createdAt,value
2019-05-06T00:01:04.866Z,85.14
2019-05-06T00:06:04.784Z,87.00
2019-05-06T00:11:05.627Z,85.66
2019-05-06T00:16:04.892Z,85.85
2019-05-06T00:21:04.854Z,85.74
2019-05-06T00:26:04.191Z,86.82
2019-05-06T00:31:12.105Z,87.02
2019-05-06T00:36:01.975Z,86.49
2019-05-06T00:45:59.761Z,83.66
2019-05-06T00:51:00.665Z,86.41
2019-05-06T00:56:00.811Z,86.57
2019-05-06T01:00:59.932Z,85.84
2019-05-06T01:05:59.717Z,85.47
2019-05-06T01:10:59.716Z,86.77
2019-05-06T01:15:59.723Z,87.87
2019-05-06T01:20:59.834Z,87.15
2019-05-06T01:25:59.559Z,86.50
2019-05-06T01:30:59.809Z,87.50
2019-05-06T01:35:58.945Z,87.16
2019-05-06T01:40:57.685Z,86.40
2019-05-06T01:45:56.812Z,86.20
2019-05-06T01:50:57.738Z,88.02
2019-05-06T01:55:57.175Z,87.61
2019-05-06T02:00:56.798Z,86.88
2019-05-06T02:05:56.688Z,86.96
2019-05-06T02:10:56.018Z,89.41
2019-05-06T02:15:55.767Z,88.31
2019-05-06T02:20:55.801Z,88.75
2019-05-06T02:25:57.483Z,87.91
2019-05-06T02:30:57.716Z,87.86
2019-05-06T02:35:57.238Z,86.48
2019-05-06T02:40:57.697Z,87.70
2019-05-06T02:45:56.943Z,86.65
2019-05-06T02:50:56.781Z,87.20
2019-05-06T02:55:56.783Z,86.37
2019-05-06T03:00:56.743Z,87.00
2019-05-06T03:05:57.799Z,87.77
2019-05-06T03:10:57.784Z,85.91
2019-05-06T03:15:57.780Z,86.54
2019-05-06T03:20:57.789Z,87.77
2019-05-06T03:25:58.645Z,88.12
2019-05-06T03:30:57.709Z,88.03
2019-05-06T03:36:06.984Z,87.70
2019-05-06T03:40:57.759Z,87.64
2019-05-06T03:45:57.791Z,87.34
2019-05-06T03:50:56.761Z,88.05
2019-05-06T03:55:57.659Z,88.23
2019-05-06T04:00:57.780Z,89.02
2019-05-06T04:05:56.777Z,89.92
2019-05-06T04:10:56.776Z,89.62
2019-05-06T04:15:56.786Z,90.03
2019-05-06T04:20:56.103Z,90.72
2019-05-06T04:25:57.978Z,90.41
2019-05-06T04:30:55.103Z,89.88
2019-05-06T04:35:54.206Z,89.82
2019-05-06T04:40:54.357Z,90.05
2019-05-06T04:45:54.008Z,89.80
2019-05-06T04:50:54.055Z,89.31
2019-05-06T05:00:53.375Z,87.88
2019-05-06T05:05:53.275Z,87.20
2019-05-06T05:10:53.217Z,87.13
2019-05-06T05:20:52.846Z,85.77
2019-05-06T05:25:55.479Z,85.43
2019-05-06T05:30:52.080Z,84.86
2019-05-06T05:35:49.998Z,85.15
2019-05-06T05:40:52.484Z,85.09
2019-05-06T05:45:52.193Z,84.89
2019-05-06T05:50:51.961Z,84.22
2019-05-06T05:55:49.947Z,83.93
2019-05-06T06:00:49.187Z,83.57
2019-05-06T06:05:51.964Z,83.40
2019-05-06T06:10:52.242Z,83.01
2019-05-06T06:15:48.887Z,83.08
2019-05-06T06:20:47.848Z,81.58
2019-05-06T06:25:47.946Z,82.25
2019-05-06T06:30:48.273Z,81.41
2019-05-06T06:35:47.887Z,81.56
2019-05-06T06:40:47.926Z,81.09
2019-05-06T06:45:47.248Z,80.02
2019-05-06T06:50:48.088Z,79.53
2019-05-06T06:55:48.280Z,79.63
2019-05-06T07:00:46.840Z,78.20
2019-05-06T07:05:45.861Z,77.80
2019-05-06T07:10:45.917Z,76.86
2019-05-06T07:15:45.995Z,77.05
2019-05-06T07:20:45.898Z,75.27
2019-05-06T07:25:48.300Z,75.33
2019-05-06T07:30:45.920Z,74.08
2019-05-06T07:35:45.955Z,73.95
2019-05-06T07:40:45.974Z,72.83
2019-05-06T07:45:46.821Z,72.76
2019-05-06T07:50:49.217Z,72.82
2019-05-06T07:55:47.365Z,73.21
2019-05-06T08:00:47.867Z,71.83
2019-05-06T08:05:58.062Z,69.63
2019-05-06T08:10:47.584Z,69.10
2019-05-06T08:15:47.746Z,69.28
2019-05-06T08:20:46.694Z,69.70
2019-05-06T08:25:49.464Z,68.05
2019-05-06T08:30:47.763Z,67.70
2019-05-06T08:35:47.807Z,67.13
2019-05-06T08:40:47.676Z,66.75
2019-05-06T08:45:46.601Z,66.91
2019-05-06T08:55:48.151Z,63.96
2019-05-06T09:00:47.191Z,63.17
2019-05-06T09:05:47.777Z,62.49
2019-05-06T09:10:47.674Z,61.17
2019-05-06T09:15:47.566Z,61.08
2019-05-06T09:20:46.562Z,59.22
2019-05-06T09:25:49.679Z,59.75
2019-05-06T09:30:47.666Z,59.76
2019-05-06T09:35:46.924Z,58.09
2019-05-06T09:40:46.036Z,56.79
2019-05-06T09:45:45.825Z,56.68
2019-05-06T09:50:46.591Z,54.77
2019-05-06T10:00:45.661Z,54.85
2019-05-06T10:05:45.907Z,56.74
2019-05-06T10:10:56.160Z,56.66
2019-05-06T10:15:45.355Z,58.63
2019-05-06T10:20:44.978Z,57.57
2019-05-06T10:30:44.182Z,58.07
2019-05-06T10:35:44.655Z,58.50
2019-05-06T10:40:57.278Z,59.93
2019-05-06T10:45:43.946Z,60.12
2019-05-06T10:50:44.573Z,60.77
2019-05-06T10:55:44.134Z,59.73
2019-05-06T11:00:44.387Z,59.91
2019-05-06T11:10:45.168Z,57.86
2019-05-06T11:15:43.649Z,60.20
2019-05-06T11:20:45.118Z,61.41
2019-05-06T11:25:45.208Z,61.69
2019-05-06T11:30:44.761Z,62.75
2019-05-06T11:35:43.997Z,62.08
2019-05-06T11:45:44.596Z,62.26
2019-05-06T11:50:44.650Z,61.94
2019-05-06T11:55:44.142Z,62.05
2019-05-06T12:00:44.432Z,63.15
2019-05-06T12:05:43.834Z,63.62
2019-05-06T12:10:42.927Z,64.15
2019-05-06T12:15:43.629Z,65.26
2019-05-06T12:20:43.789Z,66.88
2019-05-06T12:25:45.470Z,66.15
2019-05-06T12:30:42.861Z,65.52
2019-05-06T12:35:42.861Z,66.13
2019-05-06T12:40:42.947Z,65.62
2019-05-06T12:45:42.991Z,64.85
2019-05-06T12:50:39.776Z,65.74
2019-05-06T12:55:42.896Z,64.24
2019-05-06T13:00:39.623Z,64.34
2019-05-06T13:05:39.604Z,63.40
2019-05-06T13:10:41.977Z,63.71
2019-05-06T13:15:38.934Z,58.56
2019-05-06T13:20:39.313Z,55.97
2019-05-06T13:25:42.190Z,56.20
2019-05-06T13:30:38.874Z,57.71
2019-05-06T13:35:41.944Z,54.74
2019-05-06T13:40:51.310Z,54.48
2019-05-06T13:45:38.415Z,55.21
2019-05-06T13:50:38.512Z,56.20
2019-05-06T13:55:36.748Z,56.41
2019-05-06T14:00:36.677Z,56.28
2019-05-06T14:05:35.654Z,55.70
2019-05-06T14:10:34.693Z,56.22
2019-05-06T14:15:34.592Z,54.21
2019-05-06T14:20:33.726Z,56.73
2019-05-06T14:25:33.765Z,55.47
2019-05-06T14:30:32.983Z,55.58
2019-05-06T14:35:32.824Z,55.32
2019-05-06T14:40:33.720Z,56.70
2019-05-06T14:45:33.353Z,56.65
2019-05-06T14:50:45.104Z,58.05
2019-05-06T14:55:32.715Z,57.97
2019-05-06T15:00:32.017Z,57.11
2019-05-06T15:05:33.266Z,58.46
2019-05-06T15:10:32.303Z,57.52
2019-05-06T15:15:32.408Z,57.94
2019-05-06T15:20:34.097Z,57.39
2019-05-06T15:25:34.024Z,58.43
2019-05-06T15:30:34.049Z,59.41
2019-05-06T15:35:32.758Z,58.40
2019-05-06T15:40:35.975Z,59.03
2019-05-06T15:45:32.630Z,60.34
2019-05-06T15:50:32.443Z,60.26
2019-05-06T15:55:32.631Z,63.13
2019-05-06T16:00:32.539Z,64.70
2019-05-06T16:05:31.694Z,66.61
2019-05-06T16:10:29.733Z,68.11
2019-05-06T16:15:33.480Z,70.46
2019-05-06T16:20:33.172Z,71.73
2019-05-06T16:25:32.130Z,72.32
2019-05-06T16:30:33.756Z,71.22
2019-05-06T16:35:32.674Z,73.76
2019-05-06T16:40:31.643Z,72.54
2019-05-06T16:45:30.641Z,71.32
2019-05-06T16:50:32.939Z,71.95
2019-05-06T16:55:32.970Z,71.43
2019-05-06T17:00:32.188Z,72.89
2019-05-06T17:05:29.585Z,72.83
2019-05-06T17:10:29.610Z,72.12
2019-05-06T17:15:31.971Z,72.10
2019-05-06T17:20:32.611Z,71.63
2019-05-06T17:25:33.456Z,71.36
2019-05-06T17:30:33.168Z,71.95
2019-05-06T17:35:32.771Z,72.59
2019-05-06T17:40:29.789Z,71.79
2019-05-06T17:45:31.963Z,71.35
2019-05-06T17:50:32.731Z,71.08
2019-05-06T17:55:32.276Z,71.51
2019-05-06T18:00:29.153Z,71.02
2019-05-06T18:05:27.712Z,70.57
2019-05-06T18:10:26.598Z,70.89
2019-05-06T18:15:25.904Z,71.32
2019-05-06T18:20:24.574Z,71.63
2019-05-06T18:25:24.099Z,71.95
2019-05-06T18:30:32.962Z,71.95
2019-05-06T18:35:24.727Z,71.65
2019-05-06T18:40:23.912Z,72.43
2019-05-06T18:45:23.634Z,71.68
2019-05-06T18:50:24.600Z,71.36
2019-05-06T18:55:25.663Z,71.45
2019-05-06T19:00:24.742Z,71.53
2019-05-06T19:05:26.955Z,71.96
2019-05-06T19:10:23.651Z,71.77
2019-05-06T19:15:23.658Z,72.04
2019-05-06T19:20:24.644Z,72.16
2019-05-06T19:25:26.464Z,72.01
2019-05-06T19:30:24.741Z,73.18
2019-05-06T19:35:23.679Z,72.94
2019-05-06T19:40:23.030Z,73.37
2019-05-06T19:45:23.918Z,73.79
2019-05-06T19:50:25.960Z,74.07
2019-05-06T19:55:23.738Z,74.84
2019-05-06T20:00:23.659Z,75.29
2019-05-06T20:05:22.902Z,76.06
2019-05-06T20:10:23.010Z,76.41
2019-05-06T20:15:21.851Z,77.38
2019-05-06T20:20:22.904Z,77.63
2019-05-06T20:25:22.117Z,77.74
2019-05-06T20:30:22.021Z,78.34
2019-05-06T20:35:22.369Z,78.24
2019-05-06T20:40:22.927Z,78.57
2019-05-06T20:45:22.358Z,78.49
2019-05-06T20:50:22.532Z,78.23
2019-05-06T20:55:20.139Z,78.09
2019-05-06T21:00:22.335Z,77.97
2019-05-06T21:05:22.791Z,78.14
2019-05-06T21:10:22.015Z,78.15
2019-05-06T21:15:22.843Z,77.62
2019-05-06T21:20:20.672Z,77.79
2019-05-06T21:25:22.620Z,77.60
2019-05-06T21:30:20.667Z,77.35
2019-05-06T21:35:22.058Z,76.90
2019-05-06T21:40:19.026Z,77.26
2019-05-06T21:45:18.147Z,77.17
2019-05-06T21:50:17.763Z,77.51
2019-05-06T21:55:16.865Z,77.06
2019-05-06T22:00:17.722Z,77.19
2019-05-06T22:05:16.680Z,77.11
2019-05-06T22:10:16.680Z,77.27
2019-05-06T22:15:16.735Z,76.92
2019-05-06T22:20:15.879Z,77.65
2019-05-06T22:25:15.954Z,77.46
2019-05-06T22:30:15.722Z,77.42
2019-05-06T22:35:15.708Z,77.35
2019-05-06T22:40:14.901Z,77.71
2019-05-06T22:45:14.269Z,77.15
2019-05-06T22:50:13.899Z,77.30
2019-05-06T22:55:13.637Z,77.32
2019-05-06T23:00:15.027Z,77.71
2019-05-06T23:05:12.326Z,77.33
2019-05-06T23:10:11.811Z,77.30
2019-05-06T23:15:12.156Z,77.54
2019-05-06T23:20:12.765Z,78.04
2019-05-06T23:25:12.701Z,77.66
2019-05-06T23:30:12.807Z,78.04
2019-05-06T23:35:12.842Z,77.96
2019-05-06T23:40:12.624Z,78.13
2019-05-06T23:45:09.716Z,78.31
2019-05-06T23:50:09.112Z,78.55
2019-05-06T23:55:08.681Z,78.62
